Mineral Point, WI (53565)

11:31 PM CDT on April 27, 2017 (GMT -0500)
KWIMINER1 | | Change Station
Active Advisory: Frost Advisory

Elev 1066 ft 42.85 °N, 90.18 °W | Updated 13 minutes ago

Overcast
Overcast
38.0 °F
Feels Like 34 °F
N
5.0
Wind Variable Wind from WSW
Gusts 10.0 mph

Today
High -- | Low -- °F
--% Chance of Precip.
Yesterday
High -- | Low -- °F
Precip. -- in
Pressure 29.80 in
Visibility 10.0 miles
Clouds Overcast 2500 ft
Windchill 34 °F
Dew Point 31 °F
Humidity 76%
Rainfall 0.72 in
Snow Depth Not available.
6:00 AM 7:57 PM
Waxing Crescent, 4% visible
METAR KMRJ 280415Z AUTO 26013G20KT 10SM OVC025 04/00 A2980 RMK AO2
Pressure 29.80 in
Visibility 10.0 miles
Clouds Overcast 2500 ft
Windchill 34 °F
Dew Point 31 °F
Humidity 76%
Rainfall 0.72 in
Snow Depth Not available.
6:00 AM 7:57 PM
Waxing Crescent, 4% visible
METAR KMRJ 280415Z AUTO 26013G20KT 10SM OVC025 04/00 A2980 RMK AO2

Get Your Daily Forecast Email!

Thanks for signing up!

Be on the lookout for a verification email in your inbox.

You'll start receiving severe weather alerts in your inbox..

×

10-Day Weather Forecast

Almanac

Astronomy

Apr. 27, 2017 Rise Set
Actual Time
Civil Twilight
Nautical Twilight
Astronomical Twilight
Moon
Length of Visible Light
Length of Day
Tomorrow will be .
, % of the Moon is Illuminated

Today's Extremes

State Highs State Lows

Community

WunderPhotos

WunderBlog® & News

Nearby

Air Quality

  Air Quality AQ Index Pollutant
Not available.

Snow Depth

Station Depth Elevation

Earthquake Activity

City Distance Mag. Time & Date
Minimum magnitude displayed is 2.5.

Coastal Water Temperatures

Place Temperature

Stations

Nearby Weather Stations

Station Location Temp. Windchill Dew Point Humidity Wind Precip. Elev Updated Type
                   

Watches & Warnings

Frost Advisory
Issued: 9:14 PM CDT Apr. 27, 2017 – National Weather Service

... Frost advisory remains in effect from 1 am to 8 am CDT
Friday...

A frost advisory remains in effect from 1 am to 8 am CDT Friday.

* Frost is expected to occur tonight

* temperatures will drop into the low 30s.

* Areas where the growing season has begun could be exposed to
the frost and near freezing temperatures.

Precautionary/preparedness actions...

A frost advisory means that widespread frost is expected.
Sensitive outdoor plants may be killed if left uncovered.



Hentz